createdAt,value
2023-01-20T00:01:12.917Z,22.77
2023-01-20T00:03:40.643Z,15.18
2023-01-20T00:06:08.044Z,15.32
2023-01-20T00:08:35.007Z,13.43
2023-01-20T00:11:06.065Z,12.27
2023-01-20T00:13:33.392Z,13.18
2023-01-20T00:16:03.086Z,12.68
2023-01-20T00:18:30.178Z,12.80
2023-01-20T00:20:57.060Z,12.65
2023-01-20T00:23:23.736Z,13.07
2023-01-20T00:25:50.561Z,12.90
2023-01-20T00:28:17.279Z,11.73
2023-01-20T00:30:44.024Z,11.20
2023-01-20T00:33:10.761Z,11.90
2023-01-20T00:35:38.424Z,11.57
2023-01-20T00:38:05.177Z,10.93
2023-01-20T00:40:31.941Z,10.75
2023-01-20T00:42:58.594Z,11.30
2023-01-20T00:45:25.367Z,11.35
2023-01-20T00:47:52.066Z,10.93
2023-01-20T00:50:19.099Z,10.30
2023-01-20T00:52:45.915Z,11.23
2023-01-20T00:55:13.090Z,10.93
2023-01-20T00:57:39.964Z,10.65
2023-01-20T01:00:07.100Z,11.35
2023-01-20T01:02:38.744Z,11.38
2023-01-20T01:05:06.057Z,10.65
2023-01-20T01:07:32.825Z,11.00
2023-01-20T01:09:59.627Z,11.05
2023-01-20T01:12:26.349Z,11.25
2023-01-20T01:14:53.183Z,11.20
2023-01-20T01:17:19.994Z,10.80
2023-01-20T01:19:46.691Z,11.88
2023-01-20T01:22:13.466Z,10.75
2023-01-20T01:24:40.519Z,10.82
2023-01-20T01:27:07.424Z,10.85
2023-01-20T01:29:34.265Z,10.32
2023-01-20T01:32:01.067Z,10.52
2023-01-20T01:34:27.927Z,10.68
2023-01-20T01:36:54.632Z,12.15
2023-01-20T01:39:21.373Z,11.05
2023-01-20T01:41:48.218Z,11.55
2023-01-20T01:44:15.282Z,11.02
2023-01-20T01:46:42.665Z,11.43
2023-01-20T01:49:29.633Z,10.65
2023-01-20T01:52:04.744Z,10.82
2023-01-20T01:54:33.917Z,13.32
2023-01-20T01:57:00.835Z,11.55
2023-01-20T01:59:27.604Z,12.70
2023-01-20T02:01:54.468Z,12.27
2023-01-20T02:04:23.728Z,12.57
2023-01-20T02:07:02.151Z,12.13
2023-01-20T02:09:29.260Z,12.20
2023-01-20T02:11:58.263Z,12.27
2023-01-20T02:14:27.550Z,12.57
2023-01-20T02:17:33.555Z,12.82
2023-01-20T02:20:10.335Z,14.60
2023-01-20T02:22:53.759Z,14.48
2023-01-20T02:26:00.816Z,14.43
2023-01-20T02:28:51.890Z,14.40
2023-01-20T02:31:21.749Z,13.73
2023-01-20T02:33:51.661Z,14.52
2023-01-20T02:36:30.013Z,13.77
2023-01-20T02:38:58.430Z,13.95
2023-01-20T02:41:38.364Z,13.27
2023-01-20T02:44:11.136Z,14.35
2023-01-20T02:47:04.289Z,13.32
2023-01-20T02:51:58.849Z,14.07
2023-01-20T02:54:27.681Z,13.02
2023-01-20T02:56:54.544Z,14.25
2023-01-20T02:59:24.055Z,14.40
2023-01-20T03:02:03.309Z,13.80
2023-01-20T03:04:33.998Z,13.70
2023-01-20T03:07:00.820Z,14.45
2023-01-20T03:09:33.110Z,14.43
2023-01-20T03:12:02.389Z,13.70
2023-01-20T03:14:29.192Z,13.15
2023-01-20T03:16:55.929Z,14.48
2023-01-20T03:19:22.726Z,13.48
2023-01-20T03:21:49.841Z,12.65
2023-01-20T03:24:16.588Z,13.65
2023-01-20T03:26:43.305Z,13.32
2023-01-20T03:29:15.297Z,14.60
2023-01-20T03:31:52.924Z,14.38
2023-01-20T03:34:21.269Z,13.52
2023-01-20T03:36:48.102Z,14.63
2023-01-20T03:39:15.023Z,12.50
2023-01-20T03:41:44.889Z,13.98
2023-01-20T03:44:13.046Z,13.35
2023-01-20T03:47:11.066Z,14.05
2023-01-20T03:50:16.272Z,14.65
2023-01-20T03:52:56.544Z,13.85
2023-01-20T03:55:28.979Z,13.88
2023-01-20T03:58:03.612Z,11.60
2023-01-20T04:00:31.911Z,14.80
2023-01-20T04:02:59.102Z,14.70
2023-01-20T04:05:25.877Z,15.23
2023-01-20T04:07:52.542Z,13.98
2023-01-20T04:10:19.389Z,14.00
2023-01-20T04:12:46.179Z,14.98
2023-01-20T04:15:13.419Z,13.63
2023-01-20T04:17:40.220Z,13.63
2023-01-20T04:20:09.198Z,14.27
2023-01-20T04:22:53.322Z,14.60
2023-01-20T04:25:28.177Z,13.75
2023-01-20T04:27:54.862Z,14.43
2023-01-20T04:30:21.699Z,14.68
2023-01-20T04:32:48.449Z,13.18
2023-01-20T04:35:17.168Z,15.32
2023-01-20T04:37:44.101Z,15.00
2023-01-20T04:40:11.469Z,15.77
2023-01-20T04:42:38.928Z,13.85
2023-01-20T04:45:06.056Z,14.57
2023-01-20T04:47:33.807Z,14.77
2023-01-20T04:50:00.694Z,15.15
2023-01-20T04:52:27.443Z,14.63
2023-01-20T04:54:54.215Z,15.25
2023-01-20T04:57:20.958Z,15.45
2023-01-20T04:59:47.730Z,15.30
2023-01-20T05:02:14.478Z,14.65
2023-01-20T05:04:41.310Z,15.48
2023-01-20T05:07:08.045Z,14.82
2023-01-20T05:09:34.920Z,15.40
2023-01-20T05:12:01.635Z,14.65
2023-01-20T05:14:28.463Z,15.07
2023-01-20T05:16:55.150Z,15.55
2023-01-20T05:19:21.850Z,16.10
2023-01-20T05:21:48.583Z,14.82
2023-01-20T05:24:15.352Z,15.68
2023-01-20T05:26:42.066Z,15.18
2023-01-20T05:29:09.302Z,14.68
2023-01-20T05:31:37.732Z,15.65
2023-01-20T05:34:05.186Z,14.85
2023-01-20T05:36:32.958Z,14.50
2023-01-20T05:38:59.651Z,14.38
2023-01-20T05:41:26.464Z,13.95
2023-01-20T05:43:55.762Z,14.30
2023-01-20T05:46:22.775Z,15.00
2023-01-20T05:48:49.588Z,17.83
2023-01-20T05:51:16.525Z,19.25
2023-01-20T05:53:44.347Z,19.05
2023-01-20T05:56:16.129Z,18.30
2023-01-20T05:58:43.245Z,16.20
2023-01-20T06:01:12.327Z,16.50
2023-01-20T06:03:39.462Z,16.88
2023-01-20T06:06:08.250Z,14.45
2023-01-20T06:08:35.826Z,13.80
2023-01-20T06:11:02.913Z,13.57
2023-01-20T06:13:30.107Z,12.82
2023-01-20T06:15:57.163Z,13.13
2023-01-20T06:18:24.586Z,13.27
2023-01-20T06:20:51.648Z,13.40
2023-01-20T06:23:18.596Z,12.73
2023-01-20T06:25:45.508Z,13.00
2023-01-20T06:28:12.270Z,12.60
2023-01-20T06:30:39.088Z,12.77
2023-01-20T06:33:10.700Z,12.88
2023-01-20T06:35:37.923Z,13.65
2023-01-20T06:38:04.849Z,12.60
2023-01-20T06:40:31.835Z,12.95
2023-01-20T06:42:59.380Z,13.68
2023-01-20T06:45:26.110Z,12.55
2023-01-20T06:47:52.835Z,12.80
2023-01-20T06:50:19.654Z,13.13
2023-01-20T06:52:46.369Z,12.93
2023-01-20T06:55:13.411Z,15.00
2023-01-20T06:57:40.346Z,14.20
2023-01-20T07:00:07.917Z,13.38
2023-01-20T07:02:34.769Z,12.25
2023-01-20T07:05:01.685Z,13.15
2023-01-20T07:07:28.484Z,13.18
2023-01-20T07:09:55.596Z,12.73
2023-01-20T07:12:22.625Z,13.02
2023-01-20T07:14:49.361Z,12.82
2023-01-20T07:17:16.091Z,13.27
2023-01-20T07:19:42.842Z,12.40
2023-01-20T07:22:09.593Z,13.05
2023-01-20T07:24:36.318Z,13.05
2023-01-20T07:27:03.260Z,20.08
2023-01-20T07:29:30.019Z,17.40
2023-01-20T07:31:56.796Z,18.70
2023-01-20T07:34:23.826Z,17.80
2023-01-20T07:36:53.327Z,18.02
2023-01-20T07:39:20.432Z,14.18
2023-01-20T07:41:49.849Z,13.65
2023-01-20T07:44:16.802Z,12.60
2023-01-20T07:46:43.829Z,12.70
2023-01-20T07:49:12.291Z,12.90
2023-01-20T07:51:40.076Z,12.70
2023-01-20T07:54:06.951Z,13.48
2023-01-20T07:56:33.857Z,12.75
2023-01-20T07:59:00.658Z,16.02
2023-01-20T08:01:29.554Z,15.90
2023-01-20T08:03:57.196Z,14.25
2023-01-20T08:06:25.286Z,13.43
2023-01-20T08:08:52.131Z,14.70
2023-01-20T08:11:20.104Z,12.73
2023-01-20T08:13:47.542Z,14.52
2023-01-20T08:16:15.623Z,14.20
2023-01-20T08:18:42.545Z,13.48
2023-01-20T08:21:27.482Z,14.43
2023-01-20T08:23:58.468Z,12.93
2023-01-20T08:26:26.408Z,12.88
2023-01-20T08:28:53.339Z,12.88
2023-01-20T08:31:23.333Z,12.40
2023-01-20T08:33:54.584Z,11.45
2023-01-20T08:36:24.177Z,13.70
2023-01-20T08:38:51.371Z,12.65
2023-01-20T08:41:21.550Z,12.25
2023-01-20T08:43:48.773Z,12.40
2023-01-20T08:46:17.011Z,11.57
2023-01-20T08:48:44.153Z,10.85
2023-01-20T08:51:17.120Z,10.70
2023-01-20T08:53:44.405Z,10.65
2023-01-20T08:56:11.540Z,11.07
2023-01-20T08:58:38.743Z,10.88
2023-01-20T09:01:10.768Z,9.32
2023-01-20T09:03:37.685Z,10.65
2023-01-20T09:06:05.018Z,9.48
2023-01-20T09:08:32.446Z,10.32
2023-01-20T09:11:10.511Z,10.07
2023-01-20T09:13:37.403Z,10.15
2023-01-20T09:16:04.604Z,10.70
2023-01-20T09:18:32.195Z,11.10
2023-01-20T09:20:59.698Z,10.23
2023-01-20T09:23:26.869Z,11.82
2023-01-20T09:25:53.619Z,10.50
2023-01-20T09:28:20.469Z,10.25
2023-01-20T09:30:47.430Z,10.60
2023-01-20T09:33:15.212Z,10.70
2023-01-20T09:35:42.064Z,11.65
2023-01-20T09:38:28.350Z,11.77
2023-01-20T09:41:26.545Z,10.70
2023-01-20T09:44:13.101Z,11.45
2023-01-20T09:46:39.811Z,10.70
2023-01-20T09:49:50.758Z,11.02
2023-01-20T09:52:41.732Z,11.10
2023-01-20T09:55:14.158Z,10.60
2023-01-20T09:57:41.872Z,11.77
2023-01-20T10:00:14.563Z,10.50
2023-01-20T10:02:41.492Z,9.95
2023-01-20T10:05:12.970Z,10.00
2023-01-20T10:07:56.703Z,9.05
2023-01-20T10:10:37.701Z,9.07
2023-01-20T10:13:08.414Z,9.18
2023-01-20T10:15:39.272Z,9.52
2023-01-20T10:18:16.781Z,8.18
2023-01-20T10:21:08.613Z,8.70
2023-01-20T10:23:54.087Z,9.80
2023-01-20T10:26:44.842Z,9.38
2023-01-20T10:29:16.357Z,9.93
2023-01-20T10:31:52.374Z,9.95
2023-01-20T10:34:20.541Z,10.48
2023-01-20T10:36:51.343Z,11.88
2023-01-20T10:39:30.335Z,9.23
2023-01-20T10:42:16.903Z,8.98
2023-01-20T10:44:43.841Z,8.93
2023-01-20T10:47:21.222Z,9.63
2023-01-20T10:50:21.898Z,8.75
2023-01-20T10:53:13.521Z,9.05
2023-01-20T10:55:46.348Z,8.65
2023-01-20T10:58:44.513Z,8.68
2023-01-20T11:01:17.227Z,9.35
2023-01-20T11:03:45.739Z,9.65
2023-01-20T11:06:25.328Z,9.43
2023-01-20T11:08:52.519Z,9.73
2023-01-20T11:11:22.274Z,10.35
2023-01-20T11:13:51.772Z,10.65
2023-01-20T11:16:25.131Z,9.73
2023-01-20T11:19:06.396Z,8.70
2023-01-20T11:21:36.789Z,7.60
2023-01-20T11:24:25.872Z,8.65
2023-01-20T11:26:52.679Z,8.05
2023-01-20T11:29:19.403Z,7.75
2023-01-20T11:31:53.907Z,7.82
2023-01-20T11:34:20.576Z,8.00
2023-01-20T11:36:47.391Z,6.80
2023-01-20T11:39:29.060Z,7.00
2023-01-20T11:42:25.096Z,6.65
2023-01-20T11:45:19.774Z,8.45
2023-01-20T11:48:01.036Z,8.18
2023-01-20T11:50:34.097Z,7.13
2023-01-20T11:55:54.731Z,7.03
2023-01-20T11:58:26.624Z,8.70
2023-01-20T12:01:02.467Z,7.65
2023-01-20T12:03:54.157Z,8.30
2023-01-20T12:06:58.637Z,7.15
2023-01-20T12:09:31.414Z,5.75
2023-01-20T12:12:22.712Z,4.95
2023-01-20T12:14:53.081Z,4.90
2023-01-20T12:17:41.289Z,4.03
2023-01-20T12:20:17.247Z,5.05
2023-01-20T12:23:21.964Z,5.60
2023-01-20T12:25:59.778Z,6.57
2023-01-20T12:28:29.484Z,5.25
2023-01-20T12:31:08.089Z,4.22
2023-01-20T12:33:39.198Z,4.65
2023-01-20T12:36:06.020Z,4.63
2023-01-20T12:39:09.312Z,4.63
2023-01-20T12:41:59.510Z,3.40
2023-01-20T12:44:34.398Z,4.90
2023-01-20T12:47:29.269Z,5.32
2023-01-20T12:50:09.787Z,4.43
2023-01-20T12:52:48.963Z,4.20
2023-01-20T12:55:34.724Z,4.68
2023-01-20T12:58:32.153Z,3.88
2023-01-20T13:01:23.913Z,4.85
2023-01-20T13:03:57.550Z,5.20
2023-01-20T13:06:36.592Z,5.22
2023-01-20T13:09:19.705Z,5.72
2023-01-20T13:12:05.350Z,4.75
2023-01-20T13:14:53.507Z,5.20
2023-01-20T13:17:35.298Z,5.05
2023-01-20T13:20:04.968Z,5.28
2023-01-20T13:22:31.876Z,5.70
2023-01-20T13:24:59.023Z,4.68
2023-01-20T13:27:30.425Z,5.35
2023-01-20T13:29:59.006Z,5.20
2023-01-20T13:32:54.016Z,5.18
2023-01-20T13:35:20.867Z,4.70
2023-01-20T13:37:59.009Z,5.03
2023-01-20T13:40:38.112Z,5.18
2023-01-20T13:43:26.433Z,6.07
2023-01-20T13:46:06.067Z,5.38
2023-01-20T13:48:37.047Z,5.70
2023-01-20T13:51:16.608Z,6.22
2023-01-20T13:53:43.862Z,6.28
2023-01-20T13:56:30.691Z,5.75
2023-01-20T13:58:58.583Z,6.78
2023-01-20T14:01:26.207Z,5.65
2023-01-20T14:04:06.146Z,6.13
2023-01-20T14:06:34.339Z,6.78
2023-01-20T14:09:01.591Z,5.82
2023-01-20T14:11:29.654Z,6.13
2023-01-20T14:14:02.024Z,5.70
2023-01-20T14:16:30.858Z,5.28
2023-01-20T14:19:02.832Z,5.63
2023-01-20T14:21:30.928Z,5.60
2023-01-20T14:23:58.420Z,5.25
2023-01-20T14:26:29.884Z,5.35
2023-01-20T14:28:58.532Z,5.00
2023-01-20T14:31:43.118Z,6.57
2023-01-20T14:34:22.367Z,6.43
2023-01-20T14:36:49.524Z,5.68
2023-01-20T14:39:23.222Z,8.65
2023-01-20T14:41:54.740Z,6.85
2023-01-20T14:44:26.255Z,7.47
2023-01-20T14:46:57.776Z,5.90
2023-01-20T14:49:39.623Z,5.63
2023-01-20T14:52:07.700Z,5.82
2023-01-20T14:54:42.347Z,5.43
2023-01-20T14:57:27.073Z,6.07
2023-01-20T15:00:19.389Z,6.28
2023-01-20T15:03:11.611Z,6.28
2023-01-20T15:05:52.431Z,6.32
2023-01-20T15:08:25.234Z,5.30
2023-01-20T15:11:14.326Z,6.97
2023-01-20T15:14:02.421Z,5.57
2023-01-20T15:16:31.388Z,5.32
2023-01-20T15:19:17.238Z,4.40
2023-01-20T15:21:59.037Z,4.88
2023-01-20T15:24:31.099Z,5.03
2023-01-20T15:27:00.424Z,4.47
2023-01-20T15:29:31.617Z,4.93
2023-01-20T15:32:01.131Z,4.90
2023-01-20T15:34:29.211Z,4.40
2023-01-20T15:36:58.094Z,5.10
2023-01-20T15:39:30.443Z,6.22
2023-01-20T15:41:58.327Z,5.38
2023-01-20T15:44:26.206Z,5.15
2023-01-20T15:46:56.651Z,5.40
2023-01-20T15:49:25.724Z,4.90
2023-01-20T15:51:52.752Z,4.95
2023-01-20T15:54:19.722Z,4.90
2023-01-20T15:56:46.743Z,4.60
2023-01-20T15:59:15.163Z,4.72
2023-01-20T16:01:42.196Z,5.03
2023-01-20T16:04:09.900Z,5.32
2023-01-20T16:06:36.673Z,5.38
2023-01-20T16:09:11.160Z,4.68
2023-01-20T16:11:38.094Z,5.10
2023-01-20T16:14:04.776Z,4.85
2023-01-20T16:16:32.917Z,5.93
2023-01-20T16:18:59.789Z,6.50
2023-01-20T16:21:26.636Z,6.70
2023-01-20T16:23:53.449Z,6.32
2023-01-20T16:26:28.221Z,5.25
2023-01-20T16:28:56.673Z,6.38
2023-01-20T16:31:23.955Z,8.23
2023-01-20T16:33:52.126Z,9.15
2023-01-20T16:36:20.194Z,8.75
2023-01-20T16:38:47.821Z,8.07
2023-01-20T16:41:15.791Z,8.45
2023-01-20T16:43:42.867Z,8.05
2023-01-20T16:46:24.557Z,7.80
2023-01-20T16:48:51.936Z,8.48
2023-01-20T16:51:20.801Z,8.70
2023-01-20T16:53:47.939Z,7.68
2023-01-20T16:56:15.793Z,7.35
2023-01-20T16:58:43.372Z,8.45
2023-01-20T17:01:13.611Z,9.35
2023-01-20T17:03:41.753Z,8.32
2023-01-20T17:06:11.085Z,9.15
2023-01-20T17:08:38.612Z,9.57
2023-01-20T17:11:06.329Z,11.18
2023-01-20T17:13:33.777Z,12.82
2023-01-20T17:16:00.990Z,15.75
2023-01-20T17:18:28.052Z,15.00
2023-01-20T17:20:56.811Z,14.80
2023-01-20T17:23:23.652Z,14.50
2023-01-20T17:25:52.962Z,14.25
2023-01-20T17:28:19.915Z,14.13
2023-01-20T17:30:46.941Z,13.20
2023-01-20T17:33:13.742Z,12.10
2023-01-20T17:35:43.249Z,12.50
2023-01-20T17:38:29.121Z,12.35
2023-01-20T17:41:03.561Z,10.57
2023-01-20T17:43:53.254Z,9.43
2023-01-20T17:46:30.384Z,10.05
2023-01-20T17:49:02.646Z,9.68
2023-01-20T17:51:30.449Z,7.63
2023-01-20T17:53:58.506Z,9.43
2023-01-20T17:56:26.190Z,10.60
2023-01-20T17:58:54.592Z,8.75
2023-01-20T18:01:23.494Z,9.35
2023-01-20T18:03:51.688Z,10.82
2023-01-20T18:06:20.100Z,9.38
2023-01-20T18:09:06.654Z,11.40
2023-01-20T18:11:35.984Z,13.75
2023-01-20T18:14:04.214Z,14.45
2023-01-20T18:16:33.028Z,14.40
2023-01-20T18:19:00.023Z,14.07
2023-01-20T18:21:33.195Z,13.55
2023-01-20T18:24:00.791Z,13.48
2023-01-20T18:26:30.006Z,13.45
2023-01-20T18:29:03.649Z,11.63
2023-01-20T18:31:32.256Z,13.93
2023-01-20T18:34:03.990Z,13.18
2023-01-20T18:36:33.284Z,12.40
2023-01-20T18:39:12.915Z,12.10
2023-01-20T18:41:40.228Z,12.20
2023-01-20T18:44:07.340Z,12.48
2023-01-20T18:46:34.270Z,12.88
2023-01-20T18:49:01.356Z,12.23
2023-01-20T18:51:29.744Z,12.43
2023-01-20T18:54:01.066Z,11.90
2023-01-20T18:56:29.549Z,12.13
2023-01-20T18:58:56.615Z,12.95
2023-01-20T19:01:29.208Z,12.45
2023-01-20T19:03:58.618Z,13.43
2023-01-20T19:06:27.215Z,13.23
2023-01-20T19:08:54.233Z,13.15
2023-01-20T19:11:29.351Z,13.80
2023-01-20T19:13:56.347Z,13.05
2023-01-20T19:16:24.843Z,16.88
2023-01-20T19:18:56.198Z,21.45
2023-01-20T19:21:23.964Z,18.70
2023-01-20T19:23:55.848Z,18.23
2023-01-20T19:26:23.763Z,17.00
2023-01-20T19:29:05.715Z,17.88
2023-01-20T19:31:34.265Z,17.65
2023-01-20T19:34:01.178Z,15.88
2023-01-20T19:36:28.060Z,15.90
2023-01-20T19:38:55.148Z,14.23
2023-01-20T19:41:25.951Z,14.43
2023-01-20T19:43:55.574Z,13.95
2023-01-20T19:46:24.537Z,13.75
2023-01-20T19:48:52.391Z,14.13
2023-01-20T19:51:21.847Z,14.95
2023-01-20T19:53:50.403Z,15.52
2023-01-20T19:56:18.600Z,13.65
2023-01-20T19:58:46.790Z,14.20
2023-01-20T20:01:20.292Z,14.95
2023-01-20T20:03:47.475Z,16.52
2023-01-20T20:06:23.299Z,18.50
2023-01-20T20:08:50.966Z,17.05
2023-01-20T20:11:17.810Z,16.40
2023-01-20T20:13:44.913Z,15.95
2023-01-20T20:16:11.667Z,15.73
2023-01-20T20:18:38.534Z,16.05
2023-01-20T20:21:06.044Z,15.82
2023-01-20T20:23:32.878Z,16.00
2023-01-20T20:25:59.818Z,16.27
2023-01-20T20:28:27.716Z,15.73
2023-01-20T20:30:57.955Z,15.93
2023-01-20T20:46:48.827Z,15.05
2023-01-20T20:49:19.178Z,14.60
2023-01-20T20:51:46.092Z,14.65
2023-01-20T20:54:17.342Z,15.05
2023-01-20T20:56:44.580Z,14.82
2023-01-20T20:59:11.371Z,14.70
2023-01-20T21:01:44.438Z,14.40
2023-01-20T21:04:11.781Z,14.25
2023-01-20T21:06:38.725Z,15.50
2023-01-20T21:09:05.407Z,15.50
2023-01-20T21:11:32.501Z,15.45
2023-01-20T21:13:59.351Z,15.48
2023-01-20T21:16:27.821Z,13.95
2023-01-20T21:18:59.309Z,13.82
2023-01-20T21:21:26.303Z,14.18
2023-01-20T21:23:57.439Z,13.77
2023-01-20T21:26:28.131Z,14.00
2023-01-20T21:28:56.713Z,11.17
2023-01-20T21:31:26.703Z,13.48
2023-01-20T21:33:55.583Z,13.82
2023-01-20T21:36:22.524Z,14.13
2023-01-20T21:38:49.544Z,14.43
2023-01-20T21:41:16.797Z,13.07
2023-01-20T21:44:03.717Z,12.15
2023-01-20T21:46:32.763Z,12.70
2023-01-20T21:49:18.041Z,12.30
2023-01-20T21:52:03.330Z,12.93
2023-01-20T21:54:31.548Z,11.52
2023-01-20T21:56:58.815Z,11.80
2023-01-20T21:59:25.846Z,13.18
2023-01-20T22:01:53.848Z,13.60
2023-01-20T22:04:20.765Z,12.60
2023-01-20T22:06:47.576Z,13.45
2023-01-20T22:09:14.342Z,13.32
2023-01-20T22:11:41.163Z,12.77
2023-01-20T22:14:09.618Z,14.13
2023-01-20T22:16:36.433Z,13.10
2023-01-20T22:19:03.203Z,14.20
2023-01-20T22:21:30.304Z,12.98
2023-01-20T22:23:57.112Z,13.50
2023-01-20T22:26:24.615Z,13.90
2023-01-20T22:28:51.426Z,14.52
2023-01-20T22:31:21.970Z,16.88
2023-01-20T22:33:54.050Z,17.05
2023-01-20T22:36:22.734Z,18.80
2023-01-20T22:38:50.386Z,21.73
2023-01-20T22:41:17.481Z,19.50
2023-01-20T22:43:44.928Z,15.73
2023-01-20T22:46:13.665Z,14.52
2023-01-20T22:48:41.871Z,14.98
2023-01-20T22:51:09.950Z,14.43
2023-01-20T22:53:37.351Z,16.00
2023-01-20T22:56:10.077Z,16.45
2023-01-20T22:58:37.316Z,15.75
2023-01-20T23:01:04.509Z,13.90
2023-01-20T23:03:31.266Z,14.48
2023-01-20T23:06:01.564Z,14.05
2023-01-20T23:08:29.572Z,13.80
2023-01-20T23:11:01.121Z,15.43
2023-01-20T23:13:29.083Z,15.23
2023-01-20T23:15:56.224Z,15.30
2023-01-20T23:18:23.466Z,13.55
2023-01-20T23:20:54.414Z,13.95
2023-01-20T23:23:21.723Z,14.27
2023-01-20T23:25:48.548Z,14.68
2023-01-20T23:28:15.847Z,13.68
2023-01-20T23:30:42.875Z,13.48
2023-01-20T23:33:10.083Z,13.75
2023-01-20T23:35:39.194Z,13.50
2023-01-20T23:38:07.176Z,13.15
2023-01-20T23:40:34.570Z,13.50
2023-01-20T23:43:01.582Z,12.95
2023-01-20T23:45:29.016Z,13.25
2023-01-20T23:47:55.893Z,13.00
2023-01-20T23:50:22.675Z,12.93
2023-01-20T23:52:49.420Z,13.82
2023-01-20T23:55:16.261Z,12.77
2023-01-20T23:57:43.007Z,12.85
